PWSweather.com
Personal Weather Stations
Station Observations
KCOGRAND2
Redlands, Southcamp Road & Dakota Circle, Grand Junction, CO 81507

Redlands, Southcamp Road & Dakota CircleGrand Junction, CO 81507

Lat: 39.055, Lon: -108.637

Elevation: 4870

Station Type: RadioShack WX200

Latest ConditionsUpdated 3:15:50 AM MDT Saturday, Sep 23, 2017
Currently Today's Max Today's Min Today's Average
Temperature 54.1°F12.3°C 63.9°F17.7°C 54.1°F12.3°C 56.6°F13.7°C
Dew Point 25.7°F-3.5°C 25.9°F-3.4°C 6.8°F-14.0°C 22.9°F-5.1°C
Winds 2.0 mph NE3.2 kmh NE 7.0 mph S11.3 kmh S - 2.9 mph 4.7 kmh
Wind Gusts 4.9 mph7.9 kmh 12.5 mph20.1 kmh - -
Humidity 33% 33% 12% 28%
Pressure 24.86 in841.9 mb 24.86 in841.9 mb 24.83 in840.8 mb -
Hour Temp Dew Point Humidity Winds Wind Gusts Pressure Precip Precip Rate Daily Precip Total
03:15 AM 54.1°F12.3°C 25.7°F-3.5°C 33% 2.0 mph NE3.2 kmh NE 4.9 mph7.9 kmh 24.86 in841.9 mb 0.00 in0.0 mm 0.00 in0.0 mm 0.00 in0.0 mm
03:10 AM 54.3°F12.4°C 25.9°F-3.4°C 33% 3.0 mph NNE4.8 kmh NNE 4.9 mph7.9 kmh 24.86 in841.9 mb 0.00 in0.0 mm 0.00 in0.0 mm 0.00 in0.0 mm
03:05 AM 54.7°F12.6°C 24.6°F-4.1°C 31% 3.0 mph NNW4.8 kmh NNW 5.4 mph8.7 kmh 24.86 in841.9 mb 0.00 in0.0 mm 0.00 in0.0 mm 0.00 in0.0 mm
03:00 AM 55.0°F12.8°C 23.4°F-4.8°C 29% 1.0 mph NW1.6 kmh NW 4.9 mph7.9 kmh 24.86 in841.9 mb 0.00 in0.0 mm 0.00 in0.0 mm 0.00 in0.0 mm
02:55 AM 55.9°F13.3°C 23.4°F-4.8°C 28% 2.0 mph NW3.2 kmh NW 3.6 mph5.8 kmh 24.86 in841.9 mb 0.00 in0.0 mm 0.00 in0.0 mm 0.00 in0.0 mm
02:50 AM 56.1°F13.4°C 23.5°F-4.7°C 28% 5.0 mph NW8.0 kmh NW 6.7 mph10.8 kmh 24.86 in841.9 mb 0.00 in0.0 mm 0.00 in0.0 mm 0.00 in0.0 mm
02:45 AM 56.3°F13.5°C 23.5°F-4.7°C 28% 3.0 mph NE4.8 kmh NE 6.7 mph10.8 kmh 24.86 in841.9 mb 0.00 in0.0 mm 0.00 in0.0 mm 0.00 in0.0 mm
02:40 AM 54.7°F12.6°C 24.6°F-4.1°C 31% Calm Calm 4.0 mph6.4 kmh 24.86 in841.9 mb 0.00 in0.0 mm 0.00 in0.0 mm 0.00 in0.0 mm
02:35 AM 55.0°F12.8°C 24.3°F-4.3°C 30% 2.0 mph NE3.2 kmh NE 3.6 mph5.8 kmh 24.86 in841.9 mb 0.00 in0.0 mm 0.00 in0.0 mm 0.00 in0.0 mm
02:30 AM 55.4°F13.0°C 24.4°F-4.2°C 30% 3.0 mph NE4.8 kmh NE 6.3 mph10.1 kmh 24.86 in841.9 mb 0.00 in0.0 mm 0.00 in0.0 mm 0.00 in0.0 mm
02:25 AM 55.6°F13.1°C 23.9°F-4.5°C 29% 1.0 mph NNE1.6 kmh NNE 5.8 mph9.3 kmh 24.86 in841.9 mb 0.00 in0.0 mm 0.00 in0.0 mm 0.00 in0.0 mm
02:20 AM 55.2°F12.9°C 23.5°F-4.7°C 29% 2.0 mph NNE3.2 kmh NNE 3.1 mph5.0 kmh 24.86 in841.9 mb 0.00 in0.0 mm 0.00 in0.0 mm 0.00 in0.0 mm
02:15 AM 55.6°F13.1°C 23.9°F-4.5°C 29% 3.0 mph N4.8 kmh N 6.3 mph10.1 kmh 24.86 in841.9 mb 0.00 in0.0 mm 0.00 in0.0 mm 0.00 in0.0 mm
02:10 AM 55.9°F13.3°C 24.1°F-4.4°C 29% 4.0 mph NW6.4 kmh NW 5.4 mph8.7 kmh 24.86 in841.9 mb 0.00 in0.0 mm 0.00 in0.0 mm 0.00 in0.0 mm
02:05 AM 56.3°F13.5°C 23.5°F-4.7°C 28% 5.0 mph W8.0 kmh W 6.9 mph11.1 kmh 24.86 in841.9 mb 0.00 in0.0 mm 0.00 in0.0 mm 0.00 in0.0 mm
02:00 AM 56.5°F13.6°C 23.0°F-5.0°C 27% 6.0 mph WSW9.7 kmh WSW 8.3 mph13.4 kmh 24.83 in840.8 mb 0.00 in0.0 mm 0.00 in0.0 mm 0.00 in0.0 mm
01:55 AM 56.7°F13.7°C 23.0°F-5.0°C 27% 5.0 mph SW8.0 kmh SW 7.8 mph12.6 kmh 24.83 in840.8 mb 0.00 in0.0 mm 0.00 in0.0 mm 0.00 in0.0 mm
01:50 AM 56.3°F13.5°C 22.8°F-5.1°C 27% 4.0 mph WNW6.4 kmh WNW 8.3 mph13.4 kmh 24.83 in840.8 mb 0.00 in0.0 mm 0.00 in0.0 mm 0.00 in0.0 mm
01:45 AM 57.2°F14.0°C 22.6°F-5.2°C 26% 2.0 mph N3.2 kmh N 4.0 mph6.4 kmh 24.83 in840.8 mb 0.00 in0.0 mm 0.00 in0.0 mm 0.00 in0.0 mm
01:40 AM 56.3°F13.5°C 23.5°F-4.7°C 28% 2.0 mph N3.2 kmh N 4.5 mph7.2 kmh 24.83 in840.8 mb 0.00 in0.0 mm 0.00 in0.0 mm 0.00 in0.0 mm
01:35 AM 56.1°F13.4°C 23.5°F-4.7°C 28% 3.0 mph N4.8 kmh N 5.8 mph9.3 kmh 24.83 in840.8 mb 0.00 in0.0 mm 0.00 in0.0 mm 0.00 in0.0 mm
01:30 AM 55.2°F12.9°C 25.9°F-3.4°C 32% 2.0 mph N3.2 kmh N 4.5 mph7.2 kmh 24.83 in840.8 mb 0.00 in0.0 mm 0.00 in0.0 mm 0.00 in0.0 mm
01:25 AM 55.2°F12.9°C 25.2°F-3.8°C 31% 2.0 mph NE3.2 kmh NE 5.8 mph9.3 kmh 24.83 in840.8 mb 0.00 in0.0 mm 0.00 in0.0 mm 0.00 in0.0 mm
01:20 AM 55.2°F12.9°C 23.5°F-4.7°C 29% 1.0 mph SE1.6 kmh SE 6.7 mph10.8 kmh 24.83 in840.8 mb 0.00 in0.0 mm 0.00 in0.0 mm 0.00 in0.0 mm
01:15 AM 56.1°F13.4°C 24.3°F-4.3°C 29% 1.0 mph SE1.6 kmh SE 3.6 mph5.8 kmh 24.83 in840.8 mb 0.00 in0.0 mm 0.00 in0.0 mm 0.00 in0.0 mm
01:10 AM 56.5°F13.6°C 23.0°F-5.0°C 27% 1.0 mph SE1.6 kmh SE 4.0 mph6.4 kmh 24.83 in840.8 mb 0.00 in0.0 mm 0.00 in0.0 mm 0.00 in0.0 mm
01:05 AM 56.8°F13.8°C 23.2°F-4.9°C 27% 2.0 mph SE3.2 kmh SE 5.4 mph8.7 kmh 24.83 in840.8 mb 0.00 in0.0 mm 0.00 in0.0 mm 0.00 in0.0 mm
01:00 AM 56.5°F13.6°C 23.7°F-4.6°C 28% 3.0 mph SE4.8 kmh SE 5.4 mph8.7 kmh 24.83 in840.8 mb 0.00 in0.0 mm 0.00 in0.0 mm 0.00 in0.0 mm
12:55 AM 56.1°F13.4°C 24.3°F-4.3°C 29% 4.0 mph SE6.4 kmh SE 6.7 mph10.8 kmh 24.83 in840.8 mb 0.00 in0.0 mm 0.00 in0.0 mm 0.00 in0.0 mm
12:50 AM 55.6°F13.1°C 24.6°F-4.1°C 30% 4.0 mph ESE6.4 kmh ESE 6.3 mph10.1 kmh 24.83 in840.8 mb 0.00 in0.0 mm 0.00 in0.0 mm 0.00 in0.0 mm
12:45 AM 56.1°F13.4°C 24.3°F-4.3°C 29% 3.0 mph E4.8 kmh E 6.7 mph10.8 kmh 24.83 in840.8 mb 0.00 in0.0 mm 0.00 in0.0 mm 0.00 in0.0 mm
12:40 AM 56.7°F13.7°C 23.0°F-5.0°C 27% 3.0 mph ENE4.8 kmh ENE 4.0 mph6.4 kmh 24.83 in840.8 mb 0.00 in0.0 mm 0.00 in0.0 mm 0.00 in0.0 mm
12:35 AM 57.2°F14.0°C 22.6°F-5.2°C 26% 4.0 mph ENE6.4 kmh ENE 4.9 mph7.9 kmh 24.83 in840.8 mb 0.00 in0.0 mm 0.00 in0.0 mm 0.00 in0.0 mm
12:30 AM 57.9°F14.4°C 21.4°F-5.9°C 24% 4.0 mph E6.4 kmh E 6.9 mph11.1 kmh 24.83 in840.8 mb 0.00 in0.0 mm 0.00 in0.0 mm 0.00 in0.0 mm
12:25 AM 58.6°F14.8°C 9.7°F-12.4°C 14% 4.0 mph E6.4 kmh E 6.7 mph10.8 kmh 24.83 in840.8 mb 0.00 in0.0 mm 0.00 in0.0 mm 0.00 in0.0 mm
12:20 AM 59.4°F15.2°C 6.8°F-14.0°C 12% 5.0 mph SE8.0 kmh SE 7.4 mph11.9 kmh 24.83 in840.8 mb 0.00 in0.0 mm 0.00 in0.0 mm 0.00 in0.0 mm
12:15 AM 59.7°F15.4°C -5537.2°C - 7.0 mph S11.3 kmh S 11.0 mph17.7 kmh 24.83 in840.8 mb 0.00 in0.0 mm 0.00 in0.0 mm 0.00 in0.0 mm
12:10 AM 59.9°F15.5°C -5537.2°C - 4.0 mph N6.4 kmh N 12.5 mph20.1 kmh 24.83 in840.8 mb 0.00 in0.0 mm 0.00 in0.0 mm 0.00 in0.0 mm
12:05 AM 63.7°F17.6°C -5537.2°C - Calm Calm 4.0 mph6.4 kmh 24.83 in840.8 mb 0.00 in0.0 mm 0.00 in0.0 mm 0.00 in0.0 mm
12:00 AM 63.9°F17.7°C -5537.2°C - 2.0 mph N3.2 kmh N 3.1 mph5.0 kmh 24.83 in840.8 mb 0.00 in0.0 mm 0.00 in0.0 mm 0.00 in0.0 mm